createdAt,value
2022-11-17T00:01:55.585Z,12.50
2022-11-17T00:04:23.698Z,12.50
2022-11-17T00:06:50.721Z,12.40
2022-11-17T00:09:17.812Z,12.40
2022-11-17T00:12:05.540Z,12.40
2022-11-17T00:14:33.188Z,12.40
2022-11-17T00:17:00.999Z,12.40
2022-11-17T00:19:46.618Z,12.50
2022-11-17T00:22:13.548Z,12.40
2022-11-17T00:24:40.423Z,12.40
2022-11-17T00:27:07.528Z,12.50
2022-11-17T00:29:39.472Z,12.50
2022-11-17T00:32:26.102Z,12.40
2022-11-17T00:34:52.921Z,12.40
2022-11-17T00:37:19.723Z,12.40
2022-11-17T00:39:46.931Z,12.40
2022-11-17T00:42:13.752Z,12.40
2022-11-17T00:44:40.596Z,12.40
2022-11-17T00:47:07.484Z,12.40
2022-11-17T00:49:34.730Z,12.40
2022-11-17T00:52:01.634Z,12.50
2022-11-17T00:54:28.981Z,12.50
2022-11-17T00:56:55.825Z,12.50
2022-11-17T00:59:22.815Z,12.60
2022-11-17T01:01:49.759Z,12.60
2022-11-17T01:04:16.614Z,12.60
2022-11-17T01:06:44.980Z,12.60
2022-11-17T01:09:17.777Z,12.50
2022-11-17T01:11:44.906Z,12.50
2022-11-17T01:14:14.097Z,12.40
2022-11-17T01:16:40.924Z,12.40
2022-11-17T01:19:08.089Z,12.30
2022-11-17T01:21:34.932Z,12.30
2022-11-17T01:24:02.119Z,12.30
2022-11-17T01:26:31.286Z,12.30
2022-11-17T01:28:58.432Z,12.30
2022-11-17T01:31:26.946Z,12.30
2022-11-17T01:33:53.861Z,12.20
2022-11-17T01:36:25.061Z,12.20
2022-11-17T01:38:52.210Z,12.20
2022-11-17T01:41:20.828Z,12.20
2022-11-17T01:43:57.878Z,12.20
2022-11-17T01:46:35.538Z,12.10
2022-11-17T01:49:13.431Z,12.10
2022-11-17T01:51:43.694Z,12.10
2022-11-17T01:54:12.177Z,12.10
2022-11-17T01:56:40.419Z,12.10
2022-11-17T01:59:15.028Z,12.10
2022-11-17T02:01:56.057Z,12.10
2022-11-17T02:04:37.744Z,12.10
2022-11-17T02:07:07.773Z,12.00
2022-11-17T02:09:36.467Z,12.00
2022-11-17T02:12:04.412Z,12.00
2022-11-17T02:14:31.359Z,12.10
2022-11-17T02:17:01.415Z,12.00
2022-11-17T02:19:39.165Z,12.10
2022-11-17T02:22:06.064Z,12.00
2022-11-17T02:24:35.820Z,12.00
2022-11-17T02:27:02.682Z,12.00
2022-11-17T02:29:37.381Z,12.00
2022-11-17T02:32:04.231Z,12.00
2022-11-17T02:34:49.711Z,12.00
2022-11-17T02:37:16.574Z,12.00
2022-11-17T02:39:49.406Z,12.00
2022-11-17T02:42:52.563Z,12.00
2022-11-17T02:45:24.922Z,12.00
2022-11-17T02:47:53.824Z,12.00
2022-11-17T02:50:25.312Z,12.10
2022-11-17T02:52:54.802Z,12.10
2022-11-17T02:55:21.718Z,12.10
2022-11-17T02:57:49.780Z,12.10
2022-11-17T03:00:17.537Z,12.20
2022-11-17T03:02:53.601Z,12.20
2022-11-17T03:05:35.587Z,12.20
2022-11-17T03:08:24.301Z,12.20
2022-11-17T03:11:06.843Z,12.30
2022-11-17T03:13:45.620Z,12.30
2022-11-17T03:16:12.423Z,12.30
2022-11-17T03:18:48.832Z,12.30
2022-11-17T03:21:15.622Z,12.30
2022-11-17T03:23:55.889Z,12.40
2022-11-17T03:26:30.907Z,12.40
2022-11-17T03:28:58.266Z,12.40
2022-11-17T03:31:26.539Z,12.50
2022-11-17T03:33:54.107Z,12.40
2022-11-17T03:36:23.009Z,12.50
2022-11-17T03:38:58.456Z,12.50
2022-11-17T03:41:26.196Z,12.50
2022-11-17T03:43:55.926Z,12.50
2022-11-17T03:46:23.359Z,12.50
2022-11-17T03:48:53.372Z,12.50
2022-11-17T03:51:28.721Z,12.50
2022-11-17T03:53:55.707Z,12.50
2022-11-17T03:56:38.811Z,12.50
2022-11-17T03:59:31.799Z,12.50
2022-11-17T04:01:59.071Z,12.50
2022-11-17T04:04:46.103Z,12.50
2022-11-17T04:07:12.938Z,12.50
2022-11-17T04:09:40.189Z,12.50
2022-11-17T04:12:26.564Z,12.50
2022-11-17T04:15:11.899Z,12.50
2022-11-17T04:17:39.123Z,12.60
2022-11-17T04:20:06.473Z,12.60
2022-11-17T04:22:33.419Z,12.70
2022-11-17T04:25:00.263Z,12.70
2022-11-17T04:27:59.476Z,12.70
2022-11-17T04:30:26.398Z,12.70
2022-11-17T04:32:53.322Z,12.70
2022-11-17T04:35:20.224Z,12.80
2022-11-17T04:37:47.065Z,12.80
2022-11-17T04:40:14.039Z,12.80
2022-11-17T04:42:41.019Z,12.80
2022-11-17T04:45:08.167Z,12.90
2022-11-17T04:47:35.012Z,12.80
2022-11-17T04:50:01.934Z,12.80
2022-11-17T04:52:30.008Z,12.90
2022-11-17T04:54:57.088Z,12.90
2022-11-17T04:57:23.927Z,12.90
2022-11-17T04:59:50.725Z,12.80
2022-11-17T05:02:17.614Z,12.90
2022-11-17T05:04:56.322Z,12.80
2022-11-17T05:07:24.452Z,12.80
2022-11-17T05:09:51.330Z,12.90
2022-11-17T05:12:36.933Z,12.80
2022-11-17T05:15:03.864Z,12.80
2022-11-17T05:17:30.704Z,12.80
2022-11-17T05:19:57.787Z,12.90
2022-11-17T05:22:43.434Z,12.80
2022-11-17T05:25:10.509Z,12.80
2022-11-17T05:27:38.079Z,12.80
2022-11-17T05:30:06.882Z,12.80
2022-11-17T05:32:33.788Z,12.80
2022-11-17T05:35:00.646Z,12.80
2022-11-17T05:37:27.659Z,12.80
2022-11-17T05:39:54.549Z,12.70
2022-11-17T05:42:21.445Z,12.70
2022-11-17T05:44:48.723Z,12.70
2022-11-17T05:47:15.754Z,12.70
2022-11-17T05:49:42.692Z,12.60
2022-11-17T05:52:09.704Z,12.60
2022-11-17T05:54:36.512Z,12.60
2022-11-17T05:57:05.124Z,12.50
2022-11-17T05:59:31.902Z,12.50
2022-11-17T06:02:12.708Z,12.50
2022-11-17T06:04:39.879Z,12.50
2022-11-17T06:07:07.030Z,12.50
2022-11-17T06:09:35.011Z,12.40
2022-11-17T06:12:05.809Z,12.40
2022-11-17T06:14:34.053Z,12.40
2022-11-17T06:17:03.933Z,12.40
2022-11-17T06:19:33.466Z,12.40
2022-11-17T06:22:15.814Z,12.40
2022-11-17T06:24:44.868Z,12.30
2022-11-17T06:27:14.011Z,12.30
2022-11-17T06:29:44.644Z,12.30
2022-11-17T06:32:15.995Z,12.30
2022-11-17T06:34:50.562Z,12.30
2022-11-17T06:37:22.081Z,12.30
2022-11-17T06:39:49.002Z,12.30
2022-11-17T06:42:15.801Z,12.30
2022-11-17T06:44:42.707Z,12.30
2022-11-17T06:47:09.493Z,12.30
2022-11-17T06:49:37.962Z,12.30
2022-11-17T06:52:04.906Z,12.20
2022-11-17T06:54:31.779Z,12.20
2022-11-17T06:56:58.721Z,12.20
2022-11-17T06:59:25.767Z,12.20
2022-11-17T07:01:52.861Z,12.20
2022-11-17T07:04:19.809Z,12.20
2022-11-17T07:06:46.704Z,12.10
2022-11-17T07:09:13.628Z,12.10
2022-11-17T07:11:40.543Z,12.10
2022-11-17T07:14:07.430Z,12.20
2022-11-17T07:16:34.376Z,12.10
2022-11-17T07:19:03.848Z,12.10
2022-11-17T07:21:30.937Z,12.10
2022-11-17T07:23:58.113Z,12.10
2022-11-17T07:26:24.955Z,12.10
2022-11-17T07:28:51.965Z,12.10
2022-11-17T07:31:18.873Z,12.10
2022-11-17T07:33:45.742Z,12.10
2022-11-17T07:36:14.896Z,12.10
2022-11-17T07:38:41.875Z,12.10
2022-11-17T07:41:10.275Z,12.10
2022-11-17T07:43:37.312Z,12.10
2022-11-17T07:46:08.607Z,12.10
2022-11-17T07:48:35.931Z,12.00
2022-11-17T07:51:03.523Z,12.00
2022-11-17T07:53:31.902Z,12.00
2022-11-17T07:56:06.217Z,12.00
2022-11-17T07:58:33.699Z,12.00
2022-11-17T08:01:05.200Z,12.00
2022-11-17T08:03:32.167Z,12.00
2022-11-17T08:06:03.127Z,12.00
2022-11-17T08:08:29.968Z,12.00
2022-11-17T08:10:56.834Z,12.00
2022-11-17T08:13:24.512Z,11.90
2022-11-17T08:15:55.898Z,12.00
2022-11-17T08:18:22.771Z,12.00
2022-11-17T08:20:49.738Z,12.00
2022-11-17T08:23:16.932Z,12.00
2022-11-17T08:25:43.880Z,12.00
2022-11-17T08:28:10.807Z,11.90
2022-11-17T08:30:37.647Z,11.90
2022-11-17T08:33:04.574Z,11.90
2022-11-17T08:35:37.371Z,11.90
2022-11-17T08:38:04.853Z,11.90
2022-11-17T08:40:31.752Z,11.90
2022-11-17T08:43:01.282Z,11.90
2022-11-17T08:45:28.545Z,11.90
2022-11-17T08:47:58.562Z,11.90
2022-11-17T08:50:25.894Z,12.00
2022-11-17T08:52:53.384Z,11.90
2022-11-17T08:55:20.365Z,11.90
2022-11-17T08:57:47.333Z,12.00
2022-11-17T09:00:14.595Z,12.00
2022-11-17T09:02:41.618Z,12.00
2022-11-17T09:05:08.885Z,12.00
2022-11-17T09:07:35.929Z,12.00
2022-11-17T09:10:04.364Z,12.00
2022-11-17T09:12:31.636Z,12.00
2022-11-17T09:14:58.490Z,12.00
2022-11-17T09:17:25.382Z,12.00
2022-11-17T09:19:52.260Z,12.00
2022-11-17T09:22:19.972Z,12.00
2022-11-17T09:24:46.835Z,12.10
2022-11-17T09:27:14.176Z,12.10
2022-11-17T09:29:41.068Z,12.10
2022-11-17T09:32:07.897Z,12.20
2022-11-17T09:34:34.906Z,12.20
2022-11-17T09:37:01.835Z,12.30
2022-11-17T09:39:28.774Z,12.30
2022-11-17T09:41:56.452Z,12.30
2022-11-17T09:44:23.811Z,12.30
2022-11-17T09:47:09.240Z,12.40
2022-11-17T09:49:52.163Z,12.40
2022-11-17T09:52:43.721Z,12.40
2022-11-17T09:55:16.406Z,12.40
2022-11-17T09:57:46.325Z,12.50
2022-11-17T10:00:20.846Z,12.50
2022-11-17T10:02:48.153Z,12.50
2022-11-17T10:05:15.496Z,12.50
2022-11-17T10:07:46.237Z,12.50
2022-11-17T10:10:16.662Z,12.50
2022-11-17T10:12:47.759Z,12.50
2022-11-17T10:15:35.637Z,12.60
2022-11-17T10:18:02.528Z,12.60
2022-11-17T10:20:29.467Z,12.50
2022-11-17T10:22:56.889Z,12.50
2022-11-17T10:25:44.100Z,12.50
2022-11-17T10:28:25.120Z,12.60
2022-11-17T10:31:00.867Z,12.60
2022-11-17T10:33:34.246Z,12.60
2022-11-17T10:36:02.028Z,12.70
2022-11-17T10:38:29.687Z,12.80
2022-11-17T10:40:58.581Z,12.80
2022-11-17T10:43:25.484Z,12.90
2022-11-17T10:45:57.081Z,12.90
2022-11-17T10:48:28.829Z,12.90
2022-11-17T10:50:55.838Z,13.00
2022-11-17T10:53:25.045Z,13.00
2022-11-17T10:55:57.344Z,13.00
2022-11-17T10:58:25.383Z,13.00
2022-11-17T11:01:02.709Z,13.10
2022-11-17T11:03:29.865Z,13.10
2022-11-17T11:05:58.088Z,13.10
2022-11-17T11:08:26.452Z,13.10
2022-11-17T11:10:54.881Z,13.20
2022-11-17T11:13:40.618Z,13.20
2022-11-17T11:16:09.750Z,13.30
2022-11-17T11:18:36.655Z,13.30
2022-11-17T11:21:32.833Z,13.30
2022-11-17T11:24:05.841Z,13.30
2022-11-17T11:26:49.109Z,13.40
2022-11-17T11:29:41.427Z,13.30
2022-11-17T11:32:25.183Z,13.40
2022-11-17T11:35:16.000Z,13.40
2022-11-17T11:37:53.380Z,13.40
2022-11-17T11:40:26.980Z,13.40
2022-11-17T11:43:10.096Z,13.40
2022-11-17T11:45:45.655Z,13.40
2022-11-17T11:48:15.966Z,13.50
2022-11-17T11:50:48.033Z,13.60
2022-11-17T11:53:18.975Z,13.60
2022-11-17T11:55:48.475Z,13.50
2022-11-17T11:58:22.224Z,13.50
2022-11-17T12:00:50.348Z,13.50
2022-11-17T12:03:40.793Z,13.50
2022-11-17T12:06:38.202Z,13.60
2022-11-17T12:09:11.035Z,13.50
2022-11-17T12:12:00.047Z,13.60
2022-11-17T12:14:33.546Z,13.60
2022-11-17T12:17:02.083Z,13.60
2022-11-17T12:19:47.604Z,13.60
2022-11-17T12:22:24.202Z,13.60
2022-11-17T12:24:55.262Z,13.70
2022-11-17T12:27:42.730Z,13.70
2022-11-17T12:30:28.530Z,13.70
2022-11-17T12:32:55.782Z,13.70
2022-11-17T12:35:25.931Z,13.80
2022-11-17T12:38:13.121Z,13.80
2022-11-17T12:40:39.957Z,13.80
2022-11-17T12:43:15.831Z,13.90
2022-11-17T12:45:51.819Z,14.00
2022-11-17T12:48:34.130Z,13.90
2022-11-17T12:51:24.571Z,13.90
2022-11-17T12:54:12.239Z,14.00
2022-11-17T12:57:08.780Z,14.10
2022-11-17T12:59:54.088Z,14.10
2022-11-17T13:02:20.956Z,14.10
2022-11-17T13:05:00.538Z,14.00
2022-11-17T13:07:27.606Z,14.00
2022-11-17T13:09:57.219Z,14.00
2022-11-17T13:12:31.162Z,14.00
2022-11-17T13:14:59.131Z,14.00
2022-11-17T13:17:32.421Z,13.90
2022-11-17T13:20:19.585Z,14.00
2022-11-17T13:23:07.012Z,13.90
2022-11-17T13:25:34.682Z,13.90
2022-11-17T13:28:04.768Z,13.90
2022-11-17T13:30:33.257Z,14.00
2022-11-17T13:35:27.505Z,14.20
2022-11-17T13:38:05.126Z,14.20
2022-11-17T13:40:33.903Z,14.20
2022-11-17T13:43:01.874Z,14.30
2022-11-17T13:45:29.238Z,14.40
2022-11-17T13:47:59.932Z,14.40
2022-11-17T13:50:27.204Z,14.40
2022-11-17T13:52:56.112Z,14.40
2022-11-17T13:55:24.500Z,14.40
2022-11-17T13:57:54.694Z,14.40
2022-11-17T14:00:22.148Z,14.40
2022-11-17T14:02:59.877Z,14.40
2022-11-17T14:05:28.673Z,14.40
2022-11-17T14:07:57.444Z,14.40
2022-11-17T14:10:32.631Z,14.40
2022-11-17T14:13:02.539Z,14.30
2022-11-17T14:15:30.608Z,14.40
2022-11-17T14:17:58.957Z,14.40
2022-11-17T14:20:25.923Z,14.30
2022-11-17T14:23:15.753Z,14.30
2022-11-17T14:25:44.252Z,14.40
2022-11-17T14:28:14.824Z,14.40
2022-11-17T14:30:42.161Z,14.40
2022-11-17T14:33:13.415Z,14.50
2022-11-17T14:35:41.091Z,14.60
2022-11-17T14:38:12.938Z,14.60
2022-11-17T14:40:39.869Z,14.70
2022-11-17T14:43:06.725Z,14.90
2022-11-17T14:45:35.548Z,14.90
2022-11-17T14:48:02.604Z,15.00
2022-11-17T14:50:29.553Z,15.10
2022-11-17T14:52:56.345Z,15.10
2022-11-17T14:55:23.181Z,15.10
2022-11-17T14:57:49.983Z,15.10
2022-11-17T15:00:20.520Z,15.10
2022-11-17T15:02:48.026Z,15.10
2022-11-17T15:05:14.899Z,15.10
2022-11-17T15:07:42.413Z,15.00
2022-11-17T15:10:09.920Z,15.00
2022-11-17T15:12:36.799Z,15.00
2022-11-17T15:15:05.171Z,15.00
2022-11-17T15:17:32.076Z,14.90
2022-11-17T15:19:58.920Z,14.90
2022-11-17T15:22:25.725Z,14.70
2022-11-17T15:24:52.856Z,14.60
2022-11-17T15:27:19.663Z,14.50
2022-11-17T15:29:46.537Z,14.50
2022-11-17T15:32:13.355Z,14.40
2022-11-17T15:34:40.226Z,14.40
2022-11-17T15:37:07.489Z,14.30
2022-11-17T15:39:34.429Z,14.30
2022-11-17T15:42:01.302Z,14.20
2022-11-17T15:44:29.081Z,14.20
2022-11-17T15:46:55.917Z,14.10
2022-11-17T15:49:22.733Z,14.00
2022-11-17T15:51:49.549Z,14.00
2022-11-17T15:54:20.270Z,13.90
2022-11-17T15:56:47.585Z,13.90
2022-11-17T15:59:14.857Z,13.90
2022-11-17T16:01:41.995Z,13.80
2022-11-17T16:04:08.834Z,13.80
2022-11-17T16:06:37.055Z,13.70
2022-11-17T16:09:04.793Z,13.70
2022-11-17T16:11:31.709Z,13.70
2022-11-17T16:13:59.149Z,13.60
2022-11-17T16:16:27.753Z,13.60
2022-11-17T16:18:54.767Z,13.50
2022-11-17T16:21:21.713Z,13.50
2022-11-17T16:23:49.747Z,13.50
2022-11-17T16:26:17.412Z,13.40
2022-11-17T16:28:44.335Z,13.30
2022-11-17T16:31:12.434Z,13.30
2022-11-17T16:33:39.282Z,13.30
2022-11-17T16:36:06.561Z,13.30
2022-11-17T16:38:33.480Z,13.20
2022-11-17T16:41:01.335Z,13.20
2022-11-17T16:43:28.241Z,13.20
2022-11-17T16:45:55.052Z,13.10
2022-11-17T16:48:21.909Z,13.10
2022-11-17T16:50:49.302Z,13.10
2022-11-17T16:53:16.327Z,13.00
2022-11-17T16:55:43.136Z,13.00
2022-11-17T16:58:10.359Z,13.00
2022-11-17T17:00:37.225Z,13.00
2022-11-17T17:03:04.218Z,13.00
2022-11-17T17:05:31.201Z,12.90
2022-11-17T17:07:58.014Z,12.90
2022-11-17T17:10:25.114Z,12.90
2022-11-17T17:12:52.187Z,12.90
2022-11-17T17:15:19.063Z,12.90
2022-11-17T17:17:45.970Z,12.90
2022-11-17T17:20:12.826Z,12.80
2022-11-17T17:22:39.652Z,12.80
2022-11-17T17:25:06.850Z,12.80
2022-11-17T17:27:33.696Z,12.80
2022-11-17T17:30:00.523Z,12.80
2022-11-17T17:32:27.411Z,12.80
2022-11-17T17:34:54.295Z,12.70
2022-11-17T17:37:21.157Z,12.70
2022-11-17T17:39:48.091Z,12.70
2022-11-17T17:42:15.002Z,12.70
2022-11-17T17:44:42.093Z,12.60
2022-11-17T17:47:08.930Z,12.60
2022-11-17T17:49:35.785Z,12.60
2022-11-17T17:52:02.679Z,12.60
2022-11-17T17:54:29.543Z,12.60
2022-11-17T17:56:57.927Z,12.50
2022-11-17T17:59:24.847Z,12.50
2022-11-17T18:01:52.111Z,12.50
2022-11-17T18:04:19.009Z,12.50
2022-11-17T18:06:48.346Z,12.40
2022-11-17T18:09:19.425Z,12.50
2022-11-17T18:11:50.038Z,12.40
2022-11-17T18:14:20.576Z,12.40
2022-11-17T18:16:48.085Z,12.40
2022-11-17T18:19:15.479Z,12.40
2022-11-17T18:21:43.049Z,12.30
2022-11-17T18:24:10.647Z,12.30
2022-11-17T18:26:38.262Z,12.30
2022-11-17T18:29:06.803Z,12.30
2022-11-17T18:31:35.402Z,12.30
2022-11-17T18:34:03.818Z,12.30
2022-11-17T18:36:31.116Z,12.30
2022-11-17T18:38:58.788Z,12.30
2022-11-17T18:41:26.554Z,12.30
2022-11-17T18:43:54.668Z,12.30
2022-11-17T18:46:22.700Z,12.30
2022-11-17T18:48:51.900Z,12.30
2022-11-17T18:51:21.161Z,12.20
2022-11-17T18:53:51.934Z,12.20
2022-11-17T18:56:19.922Z,12.20
2022-11-17T18:58:46.947Z,12.20
2022-11-17T19:01:14.952Z,12.20
2022-11-17T19:03:42.783Z,12.10
2022-11-17T19:06:10.161Z,12.10
2022-11-17T19:08:37.423Z,12.10
2022-11-17T19:11:06.425Z,12.10
2022-11-17T19:13:34.596Z,12.10
2022-11-17T19:16:18.701Z,12.10
2022-11-17T19:18:47.075Z,12.10
2022-11-17T19:21:15.656Z,12.00
2022-11-17T19:23:48.053Z,12.00
2022-11-17T19:26:19.522Z,12.00
2022-11-17T19:28:46.535Z,12.00
2022-11-17T19:31:22.786Z,12.00
2022-11-17T19:33:52.705Z,12.00
2022-11-17T19:36:20.976Z,11.90
2022-11-17T19:38:48.662Z,11.90
2022-11-17T19:41:19.828Z,11.90
2022-11-17T19:43:46.863Z,11.90
2022-11-17T19:46:15.190Z,11.80
2022-11-17T19:48:42.933Z,11.80
2022-11-17T19:51:20.665Z,11.80
2022-11-17T19:53:51.905Z,11.80
2022-11-17T19:56:19.333Z,11.80
2022-11-17T19:58:46.532Z,11.70
2022-11-17T20:01:39.689Z,11.70
2022-11-17T20:04:07.461Z,11.70
2022-11-17T20:06:36.390Z,11.60
2022-11-17T20:09:08.250Z,11.60
2022-11-17T20:11:35.540Z,11.60
2022-11-17T20:14:02.780Z,11.60
2022-11-17T20:16:31.413Z,11.60
2022-11-17T20:18:59.651Z,11.60
2022-11-17T20:21:27.566Z,11.60
2022-11-17T20:23:54.980Z,11.50
2022-11-17T20:26:23.075Z,11.50
2022-11-17T20:28:50.500Z,11.50
2022-11-17T20:31:17.431Z,11.50
2022-11-17T20:33:44.317Z,11.50
2022-11-17T20:36:12.255Z,11.50
2022-11-17T20:38:39.213Z,11.50
2022-11-17T20:41:07.375Z,11.50
2022-11-17T20:43:35.144Z,11.40
2022-11-17T20:46:02.730Z,11.40
2022-11-17T20:48:30.489Z,11.40
2022-11-17T20:51:01.627Z,11.40
2022-11-17T20:53:28.747Z,11.40
2022-11-17T20:55:56.437Z,11.30
2022-11-17T20:58:24.078Z,11.30
2022-11-17T21:00:51.499Z,11.30
2022-11-17T21:03:18.538Z,11.30
2022-11-17T21:05:58.148Z,11.30
2022-11-17T21:08:26.216Z,11.30
2022-11-17T21:10:56.909Z,11.20
2022-11-17T21:13:24.479Z,11.20
2022-11-17T21:16:14.189Z,11.10
2022-11-17T21:18:48.033Z,11.10
2022-11-17T21:21:15.725Z,11.10
2022-11-17T21:23:42.874Z,11.10
2022-11-17T21:26:11.160Z,11.00
2022-11-17T21:28:38.674Z,10.90
2022-11-17T21:31:09.126Z,10.90
2022-11-17T21:33:36.706Z,10.90
2022-11-17T21:36:04.536Z,10.90
2022-11-17T21:38:31.589Z,10.90
2022-11-17T21:41:04.597Z,10.90
2022-11-17T21:43:31.498Z,10.90
2022-11-17T21:46:02.497Z,10.90
2022-11-17T21:48:29.351Z,10.90
2022-11-17T21:50:56.195Z,10.80
2022-11-17T21:53:23.054Z,10.80
2022-11-17T21:55:49.898Z,10.80
2022-11-17T21:58:16.773Z,10.80
2022-11-17T22:00:44.072Z,10.80
2022-11-17T22:03:10.968Z,10.70
2022-11-17T22:05:38.078Z,10.70
2022-11-17T22:08:05.207Z,10.70
2022-11-17T22:10:32.149Z,10.70
2022-11-17T22:12:59.193Z,10.60
2022-11-17T22:15:26.029Z,10.60
2022-11-17T22:17:52.875Z,10.60
2022-11-17T22:20:19.755Z,10.60
2022-11-17T22:22:47.914Z,10.60
2022-11-17T22:25:42.933Z,10.60
2022-11-17T22:28:01.586Z,10.60
2022-11-17T22:30:28.416Z,10.60
2022-11-17T22:32:55.906Z,10.60
2022-11-17T22:35:22.830Z,10.70
2022-11-17T22:37:49.751Z,10.70
2022-11-17T22:40:16.655Z,10.70
2022-11-17T22:42:43.482Z,10.70
2022-11-17T22:45:10.510Z,10.70
2022-11-17T22:47:37.422Z,10.80
2022-11-17T22:50:04.552Z,10.80
2022-11-17T22:52:33.648Z,10.80
2022-11-17T22:55:00.478Z,10.80
2022-11-17T22:57:27.770Z,10.80
2022-11-17T22:59:54.669Z,10.80
2022-11-17T23:02:21.593Z,10.80
2022-11-17T23:04:48.456Z,10.80
2022-11-17T23:07:15.334Z,10.80
2022-11-17T23:09:42.782Z,10.90
2022-11-17T23:12:09.624Z,10.80
2022-11-17T23:14:36.496Z,10.80
2022-11-17T23:17:03.357Z,10.80
2022-11-17T23:19:30.241Z,10.80
2022-11-17T23:21:57.070Z,10.80
2022-11-17T23:24:23.926Z,10.80
2022-11-17T23:26:50.772Z,10.70
2022-11-17T23:29:18.315Z,10.70
2022-11-17T23:31:45.354Z,10.80
2022-11-17T23:34:12.327Z,10.80
2022-11-17T23:36:39.324Z,10.80
2022-11-17T23:39:06.145Z,10.80
2022-11-17T23:41:33.094Z,10.80
2022-11-17T23:43:59.890Z,10.80
2022-11-17T23:46:27.407Z,10.80
2022-11-17T23:48:54.675Z,10.80
2022-11-17T23:51:22.647Z,10.80
2022-11-17T23:53:49.916Z,10.80
2022-11-17T23:56:17.422Z,10.90
2022-11-17T23:58:44.440Z,10.90
